Terminal Aerodrome Forecast
Issued by NWS

Home | Current Version | Previous Version | Text Only | Print | Product List | Glossary On
Versions: 1 2 3 4 5 6 7 8 9 10 11 12
000
FTUS44 KSJT 271700 AAB
TAFBBD
TAF AMD
KBBD 271714Z 2717/2812 34011G17KT P6SM OVC028
     FM272100 02011G17KT P6SM BKN035
     FM272300 02007KT P6SM SCT035 OVC070=

USA.gov is the U.S. government's official web portal to all federal, state and local government web resources and services.